createdAt,value
2023-05-19T00:02:10.135Z,8.82
2023-05-19T00:04:37.802Z,9.45
2023-05-19T00:07:10.620Z,9.57
2023-05-19T00:09:38.104Z,8.93
2023-05-19T00:12:05.146Z,8.20
2023-05-19T00:14:32.336Z,8.93
2023-05-19T00:17:02.012Z,9.40
2023-05-19T00:19:32.226Z,9.00
2023-05-19T00:21:59.347Z,8.70
2023-05-19T00:24:26.106Z,9.18
2023-05-19T00:26:52.795Z,8.02
2023-05-19T00:29:20.904Z,7.95
2023-05-19T00:31:47.979Z,8.38
2023-05-19T00:34:14.858Z,8.70
2023-05-19T00:36:41.678Z,8.38
2023-05-19T00:39:08.529Z,7.93
2023-05-19T00:41:35.390Z,8.15
2023-05-19T00:44:02.119Z,8.07
2023-05-19T00:46:30.364Z,7.88
2023-05-19T00:48:57.132Z,7.82
2023-05-19T00:51:26.709Z,7.47
2023-05-19T00:53:53.812Z,7.53
2023-05-19T00:56:21.807Z,8.18
2023-05-19T00:58:51.218Z,7.47
2023-05-19T01:01:19.022Z,7.53
2023-05-19T01:03:48.057Z,6.85
2023-05-19T01:06:15.088Z,6.65
2023-05-19T01:08:42.113Z,7.05
2023-05-19T01:11:08.814Z,7.38
2023-05-19T01:13:41.812Z,6.78
2023-05-19T01:16:18.978Z,7.13
2023-05-19T01:18:46.473Z,7.80
2023-05-19T01:21:19.245Z,8.40
2023-05-19T01:23:57.192Z,7.75
2023-05-19T01:26:44.836Z,8.15
2023-05-19T01:29:41.959Z,7.97
2023-05-19T01:32:10.798Z,7.00
2023-05-19T01:34:42.693Z,6.18
2023-05-19T01:37:09.961Z,6.10
2023-05-19T01:39:37.481Z,5.88
2023-05-19T01:42:04.700Z,6.32
2023-05-19T01:44:33.580Z,6.38
2023-05-19T01:47:01.247Z,6.30
2023-05-19T01:49:28.073Z,5.30
2023-05-19T01:51:54.798Z,5.78
2023-05-19T01:54:22.262Z,5.10
2023-05-19T01:57:15.914Z,6.10
2023-05-19T02:00:06.428Z,5.63
2023-05-19T02:02:59.094Z,4.70
2023-05-19T02:05:40.556Z,4.75
2023-05-19T02:08:24.107Z,4.82
2023-05-19T02:10:58.127Z,4.97
2023-05-19T02:13:31.215Z,5.45
2023-05-19T02:16:04.538Z,4.95
2023-05-19T02:18:33.479Z,5.32
2023-05-19T02:21:00.171Z,5.40
2023-05-19T02:23:27.088Z,5.13
2023-05-19T02:25:53.836Z,4.85
2023-05-19T02:28:20.533Z,5.28
2023-05-19T02:30:47.324Z,6.45
2023-05-19T02:33:37.497Z,4.47
2023-05-19T02:36:04.651Z,4.18
2023-05-19T02:38:31.686Z,4.68
2023-05-19T02:40:59.419Z,4.15
2023-05-19T02:46:17.201Z,3.72
2023-05-19T02:48:44.019Z,4.15
2023-05-19T02:51:10.823Z,3.47
2023-05-19T02:53:37.728Z,4.05
2023-05-19T02:56:04.750Z,4.10
2023-05-19T02:58:31.815Z,4.10
2023-05-19T03:00:58.555Z,4.10
2023-05-19T03:03:26.030Z,3.95
2023-05-19T03:05:53.894Z,4.28
2023-05-19T03:08:20.830Z,3.55
2023-05-19T03:10:47.893Z,4.30
2023-05-19T03:13:14.874Z,4.20
2023-05-19T03:15:42.560Z,4.15
2023-05-19T03:18:09.616Z,3.80
2023-05-19T03:20:36.447Z,3.97
2023-05-19T03:23:03.147Z,4.05
2023-05-19T03:25:30.179Z,4.18
2023-05-19T03:27:57.135Z,3.83
2023-05-19T03:30:23.983Z,4.22
2023-05-19T03:33:05.468Z,3.65
2023-05-19T03:35:32.495Z,3.95
2023-05-19T03:37:59.482Z,3.28
2023-05-19T03:40:26.245Z,4.20
2023-05-19T03:43:01.036Z,4.07
2023-05-19T03:45:28.499Z,3.67
2023-05-19T03:47:55.491Z,3.80
2023-05-19T03:50:45.495Z,3.83
2023-05-19T03:53:16.956Z,3.10
2023-05-19T03:55:44.766Z,3.75
2023-05-19T03:58:14.672Z,3.85
2023-05-19T04:00:42.690Z,3.92
2023-05-19T04:03:09.718Z,4.05
2023-05-19T04:05:36.547Z,3.78
2023-05-19T04:08:03.582Z,3.70
2023-05-19T04:10:30.633Z,3.50
2023-05-19T04:12:57.579Z,3.92
2023-05-19T04:15:26.790Z,3.85
2023-05-19T04:17:53.500Z,3.58
2023-05-19T04:20:20.389Z,3.25
2023-05-19T04:22:47.041Z,3.45
2023-05-19T04:25:14.854Z,3.03
2023-05-19T04:27:41.492Z,3.67
2023-05-19T04:30:08.698Z,3.58
2023-05-19T04:32:39.521Z,3.28
2023-05-19T04:35:06.789Z,3.88
2023-05-19T04:37:38.396Z,4.47
2023-05-19T04:40:10.974Z,3.47
2023-05-19T04:42:41.199Z,3.75
2023-05-19T04:45:10.044Z,3.42
2023-05-19T04:47:42.435Z,3.60
2023-05-19T04:50:11.221Z,4.38
2023-05-19T04:52:37.918Z,3.70
2023-05-19T04:55:06.298Z,3.40
2023-05-19T04:57:34.174Z,3.72
2023-05-19T05:00:01.765Z,4.03
2023-05-19T05:02:43.635Z,3.58
2023-05-19T05:05:11.997Z,4.50
2023-05-19T05:07:38.813Z,3.60
2023-05-19T05:10:06.987Z,3.72
2023-05-19T05:12:34.215Z,4.10
2023-05-19T05:15:01.207Z,3.83
2023-05-19T05:17:28.770Z,3.92
2023-05-19T05:19:56.942Z,4.07
2023-05-19T05:22:23.792Z,3.72
2023-05-19T05:24:50.987Z,3.85
2023-05-19T05:27:20.822Z,3.60
2023-05-19T05:29:47.601Z,3.78
2023-05-19T05:32:16.910Z,3.30
2023-05-19T05:34:43.934Z,3.72
2023-05-19T05:37:13.161Z,3.05
2023-05-19T05:39:43.465Z,4.43
2023-05-19T05:42:10.786Z,3.78
2023-05-19T05:44:40.083Z,3.65
2023-05-19T05:47:12.046Z,3.47
2023-05-19T05:49:40.333Z,4.85
2023-05-19T05:52:09.080Z,3.90
2023-05-19T05:54:42.580Z,3.53
2023-05-19T05:57:10.240Z,4.00
2023-05-19T05:59:38.668Z,3.97
2023-05-19T06:02:05.652Z,4.18
2023-05-19T06:04:33.337Z,3.83
2023-05-19T06:07:01.803Z,3.85
2023-05-19T06:09:33.016Z,3.72
2023-05-19T06:12:00.978Z,4.57
2023-05-19T06:14:31.798Z,3.58
2023-05-19T06:17:16.921Z,3.35
2023-05-19T06:19:43.807Z,4.05
2023-05-19T06:22:10.582Z,4.25
2023-05-19T06:24:39.447Z,3.78
2023-05-19T06:27:09.580Z,3.67
2023-05-19T06:29:36.390Z,4.05
2023-05-19T06:32:08.148Z,4.70
2023-05-19T06:34:35.628Z,4.50
2023-05-19T06:37:03.480Z,4.65
2023-05-19T06:39:34.104Z,4.00
2023-05-19T06:42:01.573Z,3.97
2023-05-19T06:44:47.053Z,3.75
2023-05-19T06:47:16.724Z,4.00
2023-05-19T06:49:51.488Z,4.25
2023-05-19T06:52:18.243Z,4.15
2023-05-19T06:54:45.066Z,4.07
2023-05-19T06:57:11.761Z,4.22
2023-05-19T06:59:40.863Z,3.97
2023-05-19T07:02:08.177Z,3.67
2023-05-19T07:04:35.719Z,3.65
2023-05-19T07:07:02.994Z,3.90
2023-05-19T07:09:29.915Z,3.85
2023-05-19T07:11:57.189Z,3.85
2023-05-19T07:14:24.070Z,4.40
2023-05-19T07:16:51.471Z,3.97
2023-05-19T07:19:21.462Z,4.15
2023-05-19T07:21:50.989Z,3.92
2023-05-19T07:24:23.996Z,3.72
2023-05-19T07:26:53.681Z,4.32
2023-05-19T07:29:20.711Z,4.25
2023-05-19T07:31:47.710Z,4.20
2023-05-19T07:34:16.932Z,3.90
2023-05-19T07:36:47.200Z,3.45
2023-05-19T07:39:14.190Z,4.03
2023-05-19T07:41:41.145Z,3.97
2023-05-19T07:44:08.174Z,4.07
2023-05-19T07:46:35.638Z,4.45
2023-05-19T07:49:02.785Z,3.80
2023-05-19T07:51:32.224Z,3.90
2023-05-19T07:54:04.434Z,3.97
2023-05-19T07:56:31.398Z,3.90
2023-05-19T07:58:58.331Z,3.88
2023-05-19T08:01:26.332Z,3.53
2023-05-19T08:03:53.332Z,4.53
2023-05-19T08:06:20.268Z,3.42
2023-05-19T08:08:49.705Z,3.53
2023-05-19T08:11:16.654Z,3.63
2023-05-19T08:13:43.510Z,3.72
2023-05-19T08:16:10.242Z,4.22
2023-05-19T08:18:37.039Z,4.03
2023-05-19T08:21:04.136Z,4.28
2023-05-19T08:23:30.874Z,4.25
2023-05-19T08:25:57.601Z,3.88
2023-05-19T08:28:24.339Z,3.75
2023-05-19T08:30:52.537Z,4.07
2023-05-19T08:33:21.535Z,4.45
2023-05-19T08:35:48.392Z,4.18
2023-05-19T08:38:15.157Z,4.40
2023-05-19T08:40:42.453Z,3.97
2023-05-19T08:43:10.010Z,3.60
2023-05-19T08:45:38.845Z,4.03
2023-05-19T08:48:06.872Z,3.83
2023-05-19T08:50:39.345Z,3.65
2023-05-19T08:56:05.207Z,3.55
2023-05-19T08:58:33.880Z,3.67
2023-05-19T09:01:04.230Z,4.60
2023-05-19T09:03:33.045Z,3.97
2023-05-19T09:06:00.093Z,4.03
2023-05-19T09:08:50.454Z,4.03
2023-05-19T09:11:15.316Z,3.67
2023-05-19T09:13:42.318Z,4.22
2023-05-19T09:16:09.353Z,3.65
2023-05-19T09:18:40.651Z,4.55
2023-05-19T09:21:10.305Z,4.07
2023-05-19T09:23:39.602Z,4.72
2023-05-19T09:26:07.954Z,4.40
2023-05-19T09:28:39.192Z,4.22
2023-05-19T09:31:08.791Z,4.30
2023-05-19T09:33:37.817Z,4.13
2023-05-19T09:36:07.327Z,4.47
2023-05-19T09:38:54.042Z,4.53
2023-05-19T09:41:23.052Z,4.53
2023-05-19T09:43:58.603Z,3.88
2023-05-19T09:46:29.582Z,5.38
2023-05-19T09:49:03.333Z,5.30
2023-05-19T09:51:34.958Z,5.38
2023-05-19T09:54:04.787Z,5.40
2023-05-19T09:56:35.105Z,5.68
2023-05-19T09:59:06.345Z,5.60
2023-05-19T10:01:37.440Z,5.32
2023-05-19T10:04:06.028Z,5.10
2023-05-19T10:06:33.726Z,5.35
2023-05-19T10:09:01.546Z,4.95
2023-05-19T10:11:30.250Z,5.07
2023-05-19T10:13:57.371Z,4.85
2023-05-19T10:16:39.838Z,5.40
2023-05-19T10:19:15.833Z,5.53
2023-05-19T10:21:45.097Z,5.10
2023-05-19T10:24:24.405Z,4.95
2023-05-19T10:27:02.857Z,5.55
2023-05-19T10:30:02.794Z,5.10
2023-05-19T10:32:46.787Z,5.38
2023-05-19T10:35:51.624Z,4.88
2023-05-19T10:38:50.034Z,4.95
2023-05-19T10:41:51.994Z,4.88
2023-05-19T10:44:27.768Z,4.90
2023-05-19T10:46:56.790Z,4.20
2023-05-19T10:49:24.443Z,3.92
2023-05-19T10:51:58.759Z,4.20
2023-05-19T10:54:46.933Z,3.90
2023-05-19T10:57:17.962Z,4.25
2023-05-19T10:59:44.802Z,4.63
2023-05-19T11:02:41.647Z,3.95
2023-05-19T11:05:18.204Z,4.47
2023-05-19T11:07:56.206Z,4.18
2023-05-19T11:10:24.009Z,4.47
2023-05-19T11:15:40.190Z,3.22
2023-05-19T11:18:18.059Z,3.92
2023-05-19T11:21:00.890Z,3.97
2023-05-19T11:23:36.700Z,3.70
2023-05-19T11:26:54.267Z,3.80
2023-05-19T11:29:29.820Z,3.97
2023-05-19T11:32:29.065Z,3.55
2023-05-19T11:35:27.876Z,4.05
2023-05-19T11:40:23.020Z,3.63
2023-05-19T11:41:03.680Z,4.65
2023-05-19T11:44:00.796Z,3.55
2023-05-19T11:46:28.915Z,3.80
2023-05-19T11:48:56.216Z,3.85
2023-05-19T11:51:23.444Z,3.97
2023-05-19T11:53:58.044Z,3.75
2023-05-19T11:56:25.025Z,3.10
2023-05-19T11:58:53.569Z,2.85
2023-05-19T12:01:26.546Z,3.00
2023-05-19T12:03:53.864Z,2.55
2023-05-19T12:06:20.907Z,3.00
2023-05-19T12:08:48.091Z,3.20
2023-05-19T12:11:18.064Z,3.30
2023-05-19T12:13:45.239Z,2.65
2023-05-19T12:16:12.219Z,3.60
2023-05-19T12:18:40.403Z,3.22
2023-05-19T12:21:07.195Z,3.00
2023-05-19T12:23:34.929Z,3.10
2023-05-19T12:26:01.922Z,3.33
2023-05-19T12:28:31.563Z,3.13
2023-05-19T12:30:58.550Z,3.03
2023-05-19T12:33:25.476Z,3.35
2023-05-19T12:35:54.570Z,3.40
2023-05-19T12:38:21.739Z,3.30
2023-05-19T12:40:51.452Z,3.20
2023-05-19T12:43:25.172Z,3.55
2023-05-19T12:45:52.485Z,4.00
2023-05-19T12:48:22.730Z,3.25
2023-05-19T12:50:52.167Z,3.50
2023-05-19T12:53:18.996Z,4.22
2023-05-19T12:55:46.088Z,3.80
2023-05-19T12:58:15.810Z,3.45
2023-05-19T13:00:45.465Z,3.90
2023-05-19T13:03:22.306Z,3.50
2023-05-19T13:05:50.999Z,5.07
2023-05-19T13:08:24.032Z,4.13
2023-05-19T13:10:54.765Z,4.00
2023-05-19T13:13:22.111Z,4.05
2023-05-19T13:15:49.414Z,4.28
2023-05-19T13:18:17.418Z,4.40
2023-05-19T13:20:50.102Z,3.60
2023-05-19T13:23:40.585Z,3.67
2023-05-19T13:26:07.990Z,3.80
2023-05-19T13:28:40.135Z,4.10
2023-05-19T13:31:11.101Z,3.90
2023-05-19T13:33:40.592Z,3.83
2023-05-19T13:36:09.559Z,3.90
2023-05-19T13:39:04.192Z,3.63
2023-05-19T13:41:34.565Z,3.67
2023-05-19T13:44:01.416Z,4.30
2023-05-19T13:46:44.764Z,4.70
2023-05-19T13:49:13.817Z,4.07
2023-05-19T13:51:43.256Z,4.80
2023-05-19T13:54:13.640Z,4.85
2023-05-19T13:56:44.266Z,4.68
2023-05-19T13:59:11.213Z,5.80
2023-05-19T14:01:38.160Z,5.45
2023-05-19T14:04:05.417Z,5.47
2023-05-19T14:06:33.310Z,5.15
2023-05-19T14:09:00.211Z,5.90
2023-05-19T14:11:40.189Z,6.15
2023-05-19T14:16:39.962Z,6.05
2023-05-19T14:19:07.159Z,5.93
2023-05-19T14:21:34.442Z,5.60
2023-05-19T14:24:01.660Z,5.45
2023-05-19T14:26:29.384Z,5.50
2023-05-19T14:28:57.136Z,6.07
2023-05-19T14:31:24.192Z,5.35
2023-05-19T14:33:51.600Z,5.20
2023-05-19T14:36:18.870Z,5.60
2023-05-19T14:38:48.639Z,6.25
2023-05-19T14:41:15.471Z,6.07
2023-05-19T14:43:43.123Z,5.20
2023-05-19T14:46:09.846Z,6.13
2023-05-19T14:48:39.195Z,5.70
2023-05-19T14:51:06.135Z,6.10
2023-05-19T14:53:33.034Z,5.72
2023-05-19T14:55:59.692Z,5.72
2023-05-19T14:58:28.209Z,5.80
2023-05-19T15:00:58.054Z,6.57
2023-05-19T15:03:24.959Z,6.10
2023-05-19T15:05:51.810Z,6.32
2023-05-19T15:08:18.497Z,6.60
2023-05-19T15:10:49.157Z,6.78
2023-05-19T15:13:17.045Z,6.28
2023-05-19T15:15:43.786Z,5.90
2023-05-19T15:18:11.447Z,5.85
2023-05-19T15:20:38.256Z,5.93
2023-05-19T15:23:04.895Z,6.35
2023-05-19T15:25:31.508Z,6.93
2023-05-19T15:27:58.148Z,6.45
2023-05-19T15:30:24.852Z,6.40
2023-05-19T15:32:51.679Z,6.35
2023-05-19T15:35:18.338Z,6.90
2023-05-19T15:37:45.013Z,6.35
2023-05-19T15:40:12.053Z,5.90
2023-05-19T15:42:38.827Z,5.68
2023-05-19T15:45:07.927Z,6.10
2023-05-19T15:47:34.629Z,6.00
2023-05-19T15:50:01.345Z,6.10
2023-05-19T15:52:28.075Z,6.07
2023-05-19T15:54:58.871Z,5.57
2023-05-19T15:57:25.754Z,6.00
2023-05-19T15:59:52.540Z,6.00
2023-05-19T16:02:19.452Z,6.07
2023-05-19T16:04:46.294Z,5.80
2023-05-19T16:07:13.008Z,5.53
2023-05-19T16:09:39.646Z,6.07
2023-05-19T16:12:06.723Z,5.53
2023-05-19T16:14:36.463Z,6.18
2023-05-19T16:17:04.836Z,5.20
2023-05-19T16:19:31.653Z,6.03
2023-05-19T16:21:58.458Z,6.05
2023-05-19T16:24:25.148Z,5.85
2023-05-19T16:26:53.728Z,5.25
2023-05-19T16:29:20.958Z,5.38
2023-05-19T16:31:47.649Z,5.60
2023-05-19T16:34:14.579Z,5.35
2023-05-19T16:36:41.257Z,5.78
2023-05-19T16:39:08.026Z,5.57
2023-05-19T16:41:34.694Z,5.35
2023-05-19T16:44:02.324Z,6.03
2023-05-19T16:46:29.958Z,4.63
2023-05-19T16:48:58.181Z,5.18
2023-05-19T16:51:24.884Z,5.68
2023-05-19T16:53:51.509Z,6.32
2023-05-19T16:56:18.129Z,5.43
2023-05-19T16:58:44.901Z,5.68
2023-05-19T17:01:12.092Z,5.20
2023-05-19T17:03:38.796Z,5.30
2023-05-19T17:06:05.541Z,5.85
2023-05-19T17:08:32.314Z,6.15
2023-05-19T17:10:58.942Z,5.43
2023-05-19T17:13:25.710Z,5.93
2023-05-19T17:15:53.537Z,5.68
2023-05-19T17:18:20.311Z,5.60
2023-05-19T17:20:46.962Z,6.18
2023-05-19T17:23:13.612Z,5.15
2023-05-19T17:25:40.267Z,5.07
2023-05-19T17:28:06.939Z,6.00
2023-05-19T17:30:34.732Z,6.07
2023-05-19T17:33:01.867Z,5.25
2023-05-19T17:35:28.722Z,5.07
2023-05-19T17:37:55.582Z,5.10
2023-05-19T17:40:22.376Z,4.78
2023-05-19T17:42:49.036Z,5.38
2023-05-19T17:45:15.968Z,5.30
2023-05-19T17:47:42.662Z,4.90
2023-05-19T17:50:09.736Z,5.57
2023-05-19T17:52:36.620Z,5.15
2023-05-19T17:55:03.672Z,6.38
2023-05-19T17:57:33.303Z,4.90
2023-05-19T18:00:00.832Z,5.13
2023-05-19T18:02:27.772Z,5.40
2023-05-19T18:04:54.804Z,5.68
2023-05-19T18:07:24.451Z,5.07
2023-05-19T18:09:52.116Z,5.65
2023-05-19T18:12:18.855Z,5.22
2023-05-19T18:14:45.611Z,5.38
2023-05-19T18:17:12.426Z,5.55
2023-05-19T18:19:39.151Z,5.95
2023-05-19T18:22:06.288Z,5.47
2023-05-19T18:24:34.817Z,4.97
2023-05-19T18:27:01.775Z,5.47
2023-05-19T18:29:28.456Z,5.63
2023-05-19T18:31:55.294Z,5.93
2023-05-19T18:34:21.938Z,5.93
2023-05-19T18:36:48.675Z,5.85
2023-05-19T18:39:15.325Z,5.57
2023-05-19T18:41:42.809Z,5.63
2023-05-19T18:44:09.659Z,5.70
2023-05-19T18:46:38.627Z,6.38
2023-05-19T18:49:05.538Z,5.43
2023-05-19T18:51:34.550Z,5.90
2023-05-19T18:54:01.496Z,5.18
2023-05-19T18:56:31.121Z,5.30
2023-05-19T18:58:58.042Z,6.05
2023-05-19T19:01:24.868Z,5.28
2023-05-19T19:03:51.767Z,5.07
2023-05-19T19:06:20.588Z,5.32
2023-05-19T19:08:49.330Z,5.47
2023-05-19T19:11:16.187Z,5.32
2023-05-19T19:13:44.034Z,5.28
2023-05-19T19:16:11.162Z,5.10
2023-05-19T19:18:37.953Z,5.25
2023-05-19T19:21:06.050Z,5.78
2023-05-19T19:23:33.151Z,5.20
2023-05-19T19:26:00.700Z,5.50
2023-05-19T19:28:27.674Z,5.25
2023-05-19T19:30:54.570Z,5.82
2023-05-19T19:33:21.360Z,5.88
2023-05-19T19:35:48.043Z,5.38
2023-05-19T19:38:14.839Z,5.82
2023-05-19T19:40:41.752Z,5.55
2023-05-19T19:43:08.443Z,5.88
2023-05-19T19:45:36.345Z,5.65
2023-05-19T19:48:03.187Z,5.00
2023-05-19T19:50:30.206Z,6.03
2023-05-19T19:52:59.441Z,5.40
2023-05-19T19:55:26.911Z,6.47
2023-05-19T19:57:54.906Z,6.00
2023-05-19T20:00:24.020Z,5.57
2023-05-19T20:03:05.837Z,5.65
2023-05-19T20:05:33.218Z,5.55
2023-05-19T20:08:02.227Z,6.03
2023-05-19T20:10:28.977Z,5.78
2023-05-19T20:12:56.226Z,5.68
2023-05-19T20:15:23.093Z,5.80
2023-05-19T20:17:49.944Z,6.15
2023-05-19T20:20:16.941Z,5.60
2023-05-19T20:22:46.668Z,5.40
2023-05-19T20:25:13.505Z,5.53
2023-05-19T20:27:40.708Z,5.30
2023-05-19T20:30:11.566Z,5.57
2023-05-19T20:32:42.179Z,5.70
2023-05-19T20:35:12.894Z,5.72
2023-05-19T20:37:40.043Z,6.18
2023-05-19T20:40:07.510Z,6.65
2023-05-19T20:42:34.294Z,5.93
2023-05-19T20:45:01.574Z,5.55
2023-05-19T20:47:30.440Z,5.20
2023-05-19T20:49:58.877Z,5.68
2023-05-19T20:52:26.966Z,5.82
2023-05-19T20:54:53.945Z,5.78
2023-05-19T20:57:21.063Z,5.60
2023-05-19T20:59:47.862Z,5.60
2023-05-19T21:02:19.433Z,5.93
2023-05-19T21:04:46.420Z,6.50
2023-05-19T21:07:13.307Z,5.20
2023-05-19T21:09:40.591Z,5.45
2023-05-19T21:12:07.556Z,6.32
2023-05-19T21:14:34.542Z,5.72
2023-05-19T21:17:01.783Z,6.00
2023-05-19T21:19:28.616Z,6.13
2023-05-19T21:21:57.137Z,6.95
2023-05-19T21:24:24.299Z,6.32
2023-05-19T21:26:53.260Z,5.30
2023-05-19T21:29:20.119Z,5.80
2023-05-19T21:31:46.804Z,5.72
2023-05-19T21:34:16.072Z,5.97
2023-05-19T21:36:46.028Z,5.07
2023-05-19T21:39:19.777Z,5.40
2023-05-19T21:41:49.418Z,5.68
2023-05-19T21:44:40.812Z,5.22
2023-05-19T21:47:34.684Z,4.82
2023-05-19T21:50:01.595Z,5.50
2023-05-19T21:52:33.920Z,4.60
2023-05-19T21:55:03.201Z,5.60
2023-05-19T21:57:29.960Z,4.97
2023-05-19T21:59:56.873Z,4.82
2023-05-19T22:02:23.906Z,5.38
2023-05-19T22:04:50.880Z,5.20
2023-05-19T22:07:17.786Z,4.65
2023-05-19T22:09:46.871Z,4.75
2023-05-19T22:12:19.329Z,5.18
2023-05-19T22:14:49.371Z,5.13
2023-05-19T22:17:18.922Z,5.40
2023-05-19T22:19:46.524Z,4.88
2023-05-19T22:22:28.150Z,5.88
2023-05-19T22:27:40.449Z,5.18
2023-05-19T22:30:10.645Z,5.55
2023-05-19T22:32:37.550Z,4.90
2023-05-19T22:35:08.631Z,4.93
2023-05-19T22:37:40.056Z,5.05
2023-05-19T22:40:07.830Z,4.88
2023-05-19T22:42:37.053Z,4.90
2023-05-19T22:45:06.673Z,5.25
2023-05-19T22:47:33.557Z,5.03
2023-05-19T22:50:00.380Z,5.35
2023-05-19T22:52:27.357Z,4.88
2023-05-19T22:54:54.154Z,4.55
2023-05-19T22:57:21.091Z,4.90
2023-05-19T22:59:47.925Z,4.72
2023-05-19T23:02:14.715Z,4.65
2023-05-19T23:04:59.998Z,4.90
2023-05-19T23:07:26.822Z,4.53
2023-05-19T23:09:53.534Z,4.95
2023-05-19T23:12:20.175Z,4.93
2023-05-19T23:14:47.043Z,5.00
2023-05-19T23:17:13.951Z,5.10
2023-05-19T23:19:40.654Z,4.32
2023-05-19T23:22:07.466Z,4.88
2023-05-19T23:24:34.257Z,5.40
2023-05-19T23:27:01.180Z,5.07
2023-05-19T23:29:27.991Z,5.25
2023-05-19T23:31:54.671Z,4.90
2023-05-19T23:34:21.480Z,4.78
2023-05-19T23:36:48.240Z,5.10
2023-05-19T23:39:14.866Z,4.93
2023-05-19T23:41:41.491Z,4.40
2023-05-19T23:44:09.025Z,4.22
2023-05-19T23:46:37.332Z,4.93
2023-05-19T23:49:04.056Z,5.32
2023-05-19T23:51:31.340Z,5.35
2023-05-19T23:53:58.108Z,5.30
2023-05-19T23:56:24.831Z,5.00
2023-05-19T23:58:51.901Z,4.07
